sensor_id;sensor_type;location;lat;lon;timestamp;P1;durP1;ratioP1;P2;durP2;ratioP2
55316;SDS011;41178;48.956;8.130;2023-03-08T00:03:27;9.77;;;7.17;;
55316;SDS011;41178;48.956;8.130;2023-03-08T00:08:29;9.57;;;7.47;;
55316;SDS011;41178;48.956;8.130;2023-03-08T00:13:31;10.23;;;7.40;;
55316;SDS011;41178;48.956;8.130;2023-03-08T00:18:33;9.50;;;7.57;;
55316;SDS011;41178;48.956;8.130;2023-03-08T00:23:36;9.43;;;6.60;;
55316;SDS011;41178;48.956;8.130;2023-03-08T00:28:39;7.33;;;6.07;;
55316;SDS011;41178;48.956;8.130;2023-03-08T00:33:41;10.57;;;7.40;;
55316;SDS011;41178;48.956;8.130;2023-03-08T00:38:43;9.43;;;6.73;;
55316;SDS011;41178;48.956;8.130;2023-03-08T00:43:45;10.40;;;6.13;;
55316;SDS011;41178;48.956;8.130;2023-03-08T00:48:47;8.07;;;6.50;;
55316;SDS011;41178;48.956;8.130;2023-03-08T00:53:49;8.40;;;6.83;;
55316;SDS011;41178;48.956;8.130;2023-03-08T00:58:51;9.63;;;7.83;;
55316;SDS011;41178;48.956;8.130;2023-03-08T01:03:52;11.57;;;9.03;;
55316;SDS011;41178;48.956;8.130;2023-03-08T01:08:54;12.27;;;8.20;;
55316;SDS011;41178;48.956;8.130;2023-03-08T01:13:56;10.60;;;8.17;;
55316;SDS011;41178;48.956;8.130;2023-03-08T01:18:59;11.83;;;7.97;;
55316;SDS011;41178;48.956;8.130;2023-03-08T01:24:02;13.43;;;9.17;;
55316;SDS011;41178;48.956;8.130;2023-03-08T01:29:03;12.27;;;9.03;;
55316;SDS011;41178;48.956;8.130;2023-03-08T01:34:05;10.93;;;8.37;;
55316;SDS011;41178;48.956;8.130;2023-03-08T01:39:07;11.13;;;9.00;;
55316;SDS011;41178;48.956;8.130;2023-03-08T01:44:12;11.03;;;9.03;;
55316;SDS011;41178;48.956;8.130;2023-03-08T01:54:55;11.60;;;8.73;;
55316;SDS011;41178;48.956;8.130;2023-03-08T01:59:58;11.53;;;8.13;;
55316;SDS011;41178;48.956;8.130;2023-03-08T02:05:12;13.67;;;9.07;;
55316;SDS011;41178;48.956;8.130;2023-03-08T02:10:15;12.43;;;8.73;;
55316;SDS011;41178;48.956;8.130;2023-03-08T02:15:18;12.07;;;8.83;;
55316;SDS011;41178;48.956;8.130;2023-03-08T02:20:29;11.50;;;8.63;;
55316;SDS011;41178;48.956;8.130;2023-03-08T02:25:33;10.00;;;7.73;;
55316;SDS011;41178;48.956;8.130;2023-03-08T02:30:35;11.27;;;9.03;;
55316;SDS011;41178;48.956;8.130;2023-03-08T02:35:38;12.90;;;9.13;;
55316;SDS011;41178;48.956;8.130;2023-03-08T02:40:43;12.77;;;9.30;;
55316;SDS011;41178;48.956;8.130;2023-03-08T02:45:44;11.20;;;8.33;;
55316;SDS011;41178;48.956;8.130;2023-03-08T02:50:46;11.20;;;8.33;;
55316;SDS011;41178;48.956;8.130;2023-03-08T02:55:48;11.13;;;8.70;;
55316;SDS011;41178;48.956;8.130;2023-03-08T03:00:50;12.77;;;8.40;;
55316;SDS011;41178;48.956;8.130;2023-03-08T03:05:52;12.97;;;8.53;;
55316;SDS011;41178;48.956;8.130;2023-03-08T03:10:54;10.43;;;7.93;;
55316;SDS011;41178;48.956;8.130;2023-03-08T03:15:56;11.57;;;8.53;;
55316;SDS011;41178;48.956;8.130;2023-03-08T03:21:04;11.90;;;9.07;;
55316;SDS011;41178;48.956;8.130;2023-03-08T03:26:12;13.53;;;9.40;;
55316;SDS011;41178;48.956;8.130;2023-03-08T03:31:17;13.93;;;9.50;;
55316;SDS011;41178;48.956;8.130;2023-03-08T03:36:20;13.53;;;10.37;;
55316;SDS011;41178;48.956;8.130;2023-03-08T03:41:23;13.07;;;9.20;;
55316;SDS011;41178;48.956;8.130;2023-03-08T03:46:24;13.43;;;9.50;;
55316;SDS011;41178;48.956;8.130;2023-03-08T03:51:26;10.83;;;8.57;;
55316;SDS011;41178;48.956;8.130;2023-03-08T03:56:28;13.10;;;8.33;;
55316;SDS011;41178;48.956;8.130;2023-03-08T04:01:30;10.90;;;9.07;;
55316;SDS011;41178;48.956;8.130;2023-03-08T04:06:32;11.43;;;7.97;;
55316;SDS011;41178;48.956;8.130;2023-03-08T04:11:35;13.47;;;8.97;;
55316;SDS011;41178;48.956;8.130;2023-03-08T04:16:38;14.10;;;8.87;;
55316;SDS011;41178;48.956;8.130;2023-03-08T04:21:40;11.03;;;8.73;;
55316;SDS011;41178;48.956;8.130;2023-03-08T04:26:42;16.13;;;11.67;;
55316;SDS011;41178;48.956;8.130;2023-03-08T04:31:44;12.37;;;8.73;;
55316;SDS011;41178;48.956;8.130;2023-03-08T04:36:45;10.83;;;8.67;;
55316;SDS011;41178;48.956;8.130;2023-03-08T04:41:48;12.37;;;8.10;;
55316;SDS011;41178;48.956;8.130;2023-03-08T04:46:50;11.33;;;8.83;;
55316;SDS011;41178;48.956;8.130;2023-03-08T04:51:52;11.60;;;8.73;;
55316;SDS011;41178;48.956;8.130;2023-03-08T04:56:53;12.40;;;8.97;;
55316;SDS011;41178;48.956;8.130;2023-03-08T05:01:55;12.40;;;9.00;;
55316;SDS011;41178;48.956;8.130;2023-03-08T05:06:57;11.40;;;8.63;;
55316;SDS011;41178;48.956;8.130;2023-03-08T05:11:59;10.60;;;8.07;;
55316;SDS011;41178;48.956;8.130;2023-03-08T05:17:00;10.27;;;8.83;;
55316;SDS011;41178;48.956;8.130;2023-03-08T05:22:02;13.93;;;9.93;;
55316;SDS011;41178;48.956;8.130;2023-03-08T05:27:06;12.97;;;9.30;;
55316;SDS011;41178;48.956;8.130;2023-03-08T05:32:12;14.30;;;9.30;;
55316;SDS011;41178;48.956;8.130;2023-03-08T05:37:13;12.10;;;8.97;;
55316;SDS011;41178;48.956;8.130;2023-03-08T05:42:15;13.67;;;10.10;;
55316;SDS011;41178;48.956;8.130;2023-03-08T05:47:17;12.53;;;8.77;;
55316;SDS011;41178;48.956;8.130;2023-03-08T05:52:18;11.97;;;9.07;;
55316;SDS011;41178;48.956;8.130;2023-03-08T05:57:21;12.17;;;8.97;;
55316;SDS011;41178;48.956;8.130;2023-03-08T06:02:22;10.70;;;8.67;;
55316;SDS011;41178;48.956;8.130;2023-03-08T06:07:24;11.63;;;7.43;;
55316;SDS011;41178;48.956;8.130;2023-03-08T06:12:26;12.43;;;9.13;;
55316;SDS011;41178;48.956;8.130;2023-03-08T06:17:27;12.10;;;9.67;;
55316;SDS011;41178;48.956;8.130;2023-03-08T06:22:29;13.43;;;9.73;;
55316;SDS011;41178;48.956;8.130;2023-03-08T06:27:31;12.23;;;9.37;;
55316;SDS011;41178;48.956;8.130;2023-03-08T06:32:32;17.77;;;10.20;;
55316;SDS011;41178;48.956;8.130;2023-03-08T06:37:36;11.97;;;8.90;;
55316;SDS011;41178;48.956;8.130;2023-03-08T06:42:37;13.20;;;9.97;;
55316;SDS011;41178;48.956;8.130;2023-03-08T06:47:42;13.03;;;7.00;;
55316;SDS011;41178;48.956;8.130;2023-03-08T06:52:43;11.23;;;8.33;;
55316;SDS011;41178;48.956;8.130;2023-03-08T06:57:45;9.97;;;7.93;;
55316;SDS011;41178;48.956;8.130;2023-03-08T07:02:47;13.07;;;8.90;;
55316;SDS011;41178;48.956;8.130;2023-03-08T07:07:49;13.10;;;8.73;;
55316;SDS011;41178;48.956;8.130;2023-03-08T07:12:51;10.87;;;7.63;;
55316;SDS011;41178;48.956;8.130;2023-03-08T07:17:54;12.13;;;8.70;;
55316;SDS011;41178;48.956;8.130;2023-03-08T07:22:56;12.50;;;9.50;;
55316;SDS011;41178;48.956;8.130;2023-03-08T07:28:01;9.50;;;7.07;;
55316;SDS011;41178;48.956;8.130;2023-03-08T07:33:03;10.97;;;8.57;;
55316;SDS011;41178;48.956;8.130;2023-03-08T07:38:05;11.43;;;8.47;;
55316;SDS011;41178;48.956;8.130;2023-03-08T07:43:07;11.13;;;6.93;;
55316;SDS011;41178;48.956;8.130;2023-03-08T07:48:08;12.03;;;8.77;;
55316;SDS011;41178;48.956;8.130;2023-03-08T07:53:10;13.47;;;8.50;;
55316;SDS011;41178;48.956;8.130;2023-03-08T07:58:12;11.57;;;8.77;;
55316;SDS011;41178;48.956;8.130;2023-03-08T08:03:13;12.57;;;8.60;;
55316;SDS011;41178;48.956;8.130;2023-03-08T08:08:15;11.27;;;8.77;;
55316;SDS011;41178;48.956;8.130;2023-03-08T08:13:17;13.70;;;10.20;;
55316;SDS011;41178;48.956;8.130;2023-03-08T08:18:19;11.20;;;8.37;;
55316;SDS011;41178;48.956;8.130;2023-03-08T08:23:20;11.63;;;8.10;;
55316;SDS011;41178;48.956;8.130;2023-03-08T08:28:23;11.47;;;9.43;;
55316;SDS011;41178;48.956;8.130;2023-03-08T08:33:28;13.77;;;10.93;;
55316;SDS011;41178;48.956;8.130;2023-03-08T08:38:31;13.83;;;8.63;;
55316;SDS011;41178;48.956;8.130;2023-03-08T08:43:33;10.83;;;8.53;;
55316;SDS011;41178;48.956;8.130;2023-03-08T08:48:36;13.17;;;9.77;;
55316;SDS011;41178;48.956;8.130;2023-03-08T08:53:38;11.53;;;8.43;;
55316;SDS011;41178;48.956;8.130;2023-03-08T08:58:40;13.30;;;10.67;;
55316;SDS011;41178;48.956;8.130;2023-03-08T09:03:43;13.43;;;9.53;;
55316;SDS011;41178;48.956;8.130;2023-03-08T09:08:49;13.70;;;9.33;;
55316;SDS011;41178;48.956;8.130;2023-03-08T09:13:52;10.70;;;8.97;;
55316;SDS011;41178;48.956;8.130;2023-03-08T09:18:55;12.30;;;9.67;;
55316;SDS011;41178;48.956;8.130;2023-03-08T09:23:59;12.17;;;8.93;;
55316;SDS011;41178;48.956;8.130;2023-03-08T09:29:03;12.77;;;9.77;;
55316;SDS011;41178;48.956;8.130;2023-03-08T09:34:05;13.47;;;10.83;;
55316;SDS011;41178;48.956;8.130;2023-03-08T09:39:10;13.80;;;9.97;;
55316;SDS011;41178;48.956;8.130;2023-03-08T09:49:48;15.77;;;12.97;;
55316;SDS011;41178;48.956;8.130;2023-03-08T09:54:52;18.20;;;12.67;;
55316;SDS011;41178;48.956;8.130;2023-03-08T09:59:58;13.40;;;10.23;;
55316;SDS011;41178;48.956;8.130;2023-03-08T10:15:42;11.60;;;9.77;;
55316;SDS011;41178;48.956;8.130;2023-03-08T10:20:47;13.20;;;10.30;;
55316;SDS011;41178;48.956;8.130;2023-03-08T10:25:49;13.07;;;10.00;;
55316;SDS011;41178;48.956;8.130;2023-03-08T10:30:55;16.47;;;10.73;;
55316;SDS011;41178;48.956;8.130;2023-03-08T10:41:17;14.70;;;10.27;;
55316;SDS011;41178;48.956;8.130;2023-03-08T10:46:19;14.30;;;10.40;;
55316;SDS011;41178;48.956;8.130;2023-03-08T10:51:24;12.23;;;9.50;;
55316;SDS011;41178;48.956;8.130;2023-03-08T10:56:35;10.07;;;7.50;;
55316;SDS011;41178;48.956;8.130;2023-03-08T11:06:32;7.63;;;6.03;;
55316;SDS011;41178;48.956;8.130;2023-03-08T11:11:41;6.80;;;5.40;;
55316;SDS011;41178;48.956;8.130;2023-03-08T11:17:29;6.40;;;5.20;;
55316;SDS011;41178;48.956;8.130;2023-03-08T11:43:39;4.33;;;3.90;;
55316;SDS011;41178;48.956;8.130;2023-03-08T12:04:49;3.63;;;3.33;;
55316;SDS011;41178;48.956;8.130;2023-03-08T12:15:20;3.50;;;3.20;;
55316;SDS011;41178;48.956;8.130;2023-03-08T12:20:32;3.80;;;3.30;;
55316;SDS011;41178;48.956;8.130;2023-03-08T12:25:40;2.87;;;2.60;;
55316;SDS011;41178;48.956;8.130;2023-03-08T12:36:05;1.93;;;1.83;;
55316;SDS011;41178;48.956;8.130;2023-03-08T12:41:22;2.20;;;2.10;;
55316;SDS011;41178;48.956;8.130;2023-03-08T12:46:24;2.47;;;2.30;;
55316;SDS011;41178;48.956;8.130;2023-03-08T12:51:32;2.00;;;1.90;;
55316;SDS011;41178;48.956;8.130;2023-03-08T12:56:47;2.30;;;2.20;;
55316;SDS011;41178;48.956;8.130;2023-03-08T13:07:02;1.97;;;1.87;;
55316;SDS011;41178;48.956;8.130;2023-03-08T13:12:22;2.17;;;2.00;;
55316;SDS011;41178;48.956;8.130;2023-03-08T13:17:51;1.97;;;1.87;;
55316;SDS011;41178;48.956;8.130;2023-03-08T13:28:15;2.60;;;2.40;;
55316;SDS011;41178;48.956;8.130;2023-03-08T13:33:29;2.50;;;2.30;;
55316;SDS011;41178;48.956;8.130;2023-03-08T13:38:34;1.60;;;1.50;;
55316;SDS011;41178;48.956;8.130;2023-03-08T13:43:37;2.77;;;2.13;;
55316;SDS011;41178;48.956;8.130;2023-03-08T13:48:41;2.03;;;1.93;;
55316;SDS011;41178;48.956;8.130;2023-03-08T13:53:44;2.70;;;2.20;;
55316;SDS011;41178;48.956;8.130;2023-03-08T13:58:47;1.97;;;1.87;;
55316;SDS011;41178;48.956;8.130;2023-03-08T14:03:53;3.53;;;2.97;;
55316;SDS011;41178;48.956;8.130;2023-03-08T14:08:56;2.67;;;2.23;;
55316;SDS011;41178;48.956;8.130;2023-03-08T14:14:05;1.90;;;1.80;;
55316;SDS011;41178;48.956;8.130;2023-03-08T14:24:17;2.20;;;2.10;;
55316;SDS011;41178;48.956;8.130;2023-03-08T14:29:23;2.33;;;2.13;;
55316;SDS011;41178;48.956;8.130;2023-03-08T14:34:28;2.40;;;2.20;;
55316;SDS011;41178;48.956;8.130;2023-03-08T14:39:37;2.00;;;1.90;;
55316;SDS011;41178;48.956;8.130;2023-03-08T14:44:47;2.23;;;2.03;;
55316;SDS011;41178;48.956;8.130;2023-03-08T14:50:16;2.53;;;2.10;;
55316;SDS011;41178;48.956;8.130;2023-03-08T14:55:31;2.17;;;2.03;;
55316;SDS011;41178;48.956;8.130;2023-03-08T15:00:36;4.90;;;2.30;;
55316;SDS011;41178;48.956;8.130;2023-03-08T15:05:48;2.23;;;2.10;;
55316;SDS011;41178;48.956;8.130;2023-03-08T15:10:50;2.07;;;1.87;;
55316;SDS011;41178;48.956;8.130;2023-03-08T15:15:52;3.77;;;3.23;;
55316;SDS011;41178;48.956;8.130;2023-03-08T15:20:54;3.57;;;2.47;;
55316;SDS011;41178;48.956;8.130;2023-03-08T15:25:57;2.73;;;2.20;;
55316;SDS011;41178;48.956;8.130;2023-03-08T15:31:04;2.33;;;2.13;;
55316;SDS011;41178;48.956;8.130;2023-03-08T15:36:05;1.90;;;1.80;;
55316;SDS011;41178;48.956;8.130;2023-03-08T15:41:11;1.77;;;1.67;;
55316;SDS011;41178;48.956;8.130;2023-03-08T15:46:14;2.47;;;2.30;;
55316;SDS011;41178;48.956;8.130;2023-03-08T15:51:16;2.43;;;2.23;;
55316;SDS011;41178;48.956;8.130;2023-03-08T15:56:20;2.10;;;1.80;;
55316;SDS011;41178;48.956;8.130;2023-03-08T16:01:23;3.03;;;2.73;;
55316;SDS011;41178;48.956;8.130;2023-03-08T16:06:27;2.80;;;2.00;;
55316;SDS011;41178;48.956;8.130;2023-03-08T16:11:29;2.83;;;2.60;;
55316;SDS011;41178;48.956;8.130;2023-03-08T16:16:33;4.43;;;3.17;;
55316;SDS011;41178;48.956;8.130;2023-03-08T16:21:45;2.43;;;1.90;;
55316;SDS011;41178;48.956;8.130;2023-03-08T16:26:47;1.80;;;1.70;;
55316;SDS011;41178;48.956;8.130;2023-03-08T16:31:49;1.90;;;1.80;;
55316;SDS011;41178;48.956;8.130;2023-03-08T16:36:51;1.70;;;1.60;;
55316;SDS011;41178;48.956;8.130;2023-03-08T16:41:53;2.20;;;2.10;;
55316;SDS011;41178;48.956;8.130;2023-03-08T16:46:55;2.10;;;2.00;;
55316;SDS011;41178;48.956;8.130;2023-03-08T16:51:57;1.87;;;1.77;;
55316;SDS011;41178;48.956;8.130;2023-03-08T16:56:58;3.23;;;1.40;;
55316;SDS011;41178;48.956;8.130;2023-03-08T17:02:19;1.80;;;1.70;;
55316;SDS011;41178;48.956;8.130;2023-03-08T17:07:21;1.80;;;1.70;;
55316;SDS011;41178;48.956;8.130;2023-03-08T17:12:23;1.67;;;1.57;;
55316;SDS011;41178;48.956;8.130;2023-03-08T17:17:25;1.70;;;1.60;;
55316;SDS011;41178;48.956;8.130;2023-03-08T17:22:27;1.80;;;1.70;;
55316;SDS011;41178;48.956;8.130;2023-03-08T17:27:28;1.60;;;1.50;;
55316;SDS011;41178;48.956;8.130;2023-03-08T17:32:30;1.40;;;1.40;;
55316;SDS011;41178;48.956;8.130;2023-03-08T17:37:32;1.77;;;1.60;;
55316;SDS011;41178;48.956;8.130;2023-03-08T17:42:42;1.70;;;1.60;;
55316;SDS011;41178;48.956;8.130;2023-03-08T17:47:43;1.93;;;1.70;;
55316;SDS011;41178;48.956;8.130;2023-03-08T17:52:45;2.80;;;2.00;;
55316;SDS011;41178;48.956;8.130;2023-03-08T17:57:47;1.73;;;1.63;;
55316;SDS011;41178;48.956;8.130;2023-03-08T18:02:49;1.97;;;1.87;;
55316;SDS011;41178;48.956;8.130;2023-03-08T18:07:50;1.83;;;1.73;;
55316;SDS011;41178;48.956;8.130;2023-03-08T18:12:52;1.67;;;1.57;;
55316;SDS011;41178;48.956;8.130;2023-03-08T18:17:54;1.80;;;1.70;;
55316;SDS011;41178;48.956;8.130;2023-03-08T18:22:55;1.60;;;1.50;;
55316;SDS011;41178;48.956;8.130;2023-03-08T18:27:57;1.97;;;1.87;;
55316;SDS011;41178;48.956;8.130;2023-03-08T18:32:59;2.20;;;2.00;;
55316;SDS011;41178;48.956;8.130;2023-03-08T18:38:01;2.67;;;2.30;;
55316;SDS011;41178;48.956;8.130;2023-03-08T18:43:03;2.23;;;1.67;;
55316;SDS011;41178;48.956;8.130;2023-03-08T18:48:04;2.30;;;1.80;;
55316;SDS011;41178;48.956;8.130;2023-03-08T18:53:06;2.10;;;1.90;;
55316;SDS011;41178;48.956;8.130;2023-03-08T18:58:08;2.17;;;2.07;;
55316;SDS011;41178;48.956;8.130;2023-03-08T19:03:09;1.80;;;1.70;;
55316;SDS011;41178;48.956;8.130;2023-03-08T19:08:11;2.77;;;2.20;;
55316;SDS011;41178;48.956;8.130;2023-03-08T19:13:13;3.20;;;2.10;;
55316;SDS011;41178;48.956;8.130;2023-03-08T19:18:15;2.40;;;2.27;;
55316;SDS011;41178;48.956;8.130;2023-03-08T19:23:16;3.80;;;2.50;;
55316;SDS011;41178;48.956;8.130;2023-03-08T19:28:18;3.23;;;2.57;;
55316;SDS011;41178;48.956;8.130;2023-03-08T19:33:20;5.27;;;3.00;;
55316;SDS011;41178;48.956;8.130;2023-03-08T19:38:31;5.40;;;2.90;;
55316;SDS011;41178;48.956;8.130;2023-03-08T19:43:33;3.07;;;2.43;;
55316;SDS011;41178;48.956;8.130;2023-03-08T19:48:35;4.67;;;3.70;;
55316;SDS011;41178;48.956;8.130;2023-03-08T19:53:37;4.00;;;2.47;;
55316;SDS011;41178;48.956;8.130;2023-03-08T19:58:39;4.57;;;3.80;;
55316;SDS011;41178;48.956;8.130;2023-03-08T20:03:41;5.20;;;3.60;;
55316;SDS011;41178;48.956;8.130;2023-03-08T20:08:43;4.87;;;3.23;;
55316;SDS011;41178;48.956;8.130;2023-03-08T20:13:44;4.83;;;2.50;;
55316;SDS011;41178;48.956;8.130;2023-03-08T20:18:46;6.90;;;4.13;;
55316;SDS011;41178;48.956;8.130;2023-03-08T20:23:50;4.30;;;3.57;;
55316;SDS011;41178;48.956;8.130;2023-03-08T20:28:55;4.20;;;3.50;;
55316;SDS011;41178;48.956;8.130;2023-03-08T20:33:58;7.43;;;5.47;;
55316;SDS011;41178;48.956;8.130;2023-03-08T20:39:00;6.03;;;4.30;;
55316;SDS011;41178;48.956;8.130;2023-03-08T20:44:02;5.10;;;4.07;;
55316;SDS011;41178;48.956;8.130;2023-03-08T20:49:04;4.27;;;2.70;;
55316;SDS011;41178;48.956;8.130;2023-03-08T20:54:06;2.77;;;2.57;;
55316;SDS011;41178;48.956;8.130;2023-03-08T20:59:08;2.87;;;2.40;;
55316;SDS011;41178;48.956;8.130;2023-03-08T21:04:11;5.87;;;3.43;;
55316;SDS011;41178;48.956;8.130;2023-03-08T21:09:13;3.77;;;2.97;;
55316;SDS011;41178;48.956;8.130;2023-03-08T21:14:14;4.60;;;3.00;;
55316;SDS011;41178;48.956;8.130;2023-03-08T21:19:16;4.90;;;3.60;;
55316;SDS011;41178;48.956;8.130;2023-03-08T21:24:19;4.77;;;2.30;;
55316;SDS011;41178;48.956;8.130;2023-03-08T21:29:23;2.50;;;2.30;;
55316;SDS011;41178;48.956;8.130;2023-03-08T21:34:25;5.00;;;3.37;;
55316;SDS011;41178;48.956;8.130;2023-03-08T21:39:27;4.00;;;2.93;;
55316;SDS011;41178;48.956;8.130;2023-03-08T21:44:28;3.87;;;3.07;;
55316;SDS011;41178;48.956;8.130;2023-03-08T21:49:32;4.20;;;3.13;;
55316;SDS011;41178;48.956;8.130;2023-03-08T21:54:35;3.17;;;2.80;;
55316;SDS011;41178;48.956;8.130;2023-03-08T21:59:37;4.37;;;2.80;;
55316;SDS011;41178;48.956;8.130;2023-03-08T22:04:38;4.67;;;2.50;;
55316;SDS011;41178;48.956;8.130;2023-03-08T22:09:40;2.90;;;2.60;;
55316;SDS011;41178;48.956;8.130;2023-03-08T22:14:43;6.13;;;2.60;;
55316;SDS011;41178;48.956;8.130;2023-03-08T22:19:45;5.43;;;3.70;;
55316;SDS011;41178;48.956;8.130;2023-03-08T22:24:46;4.33;;;3.10;;
55316;SDS011;41178;48.956;8.130;2023-03-08T22:29:48;4.73;;;2.80;;
55316;SDS011;41178;48.956;8.130;2023-03-08T22:34:50;3.87;;;3.13;;
55316;SDS011;41178;48.956;8.130;2023-03-08T22:39:52;2.97;;;2.50;;
55316;SDS011;41178;48.956;8.130;2023-03-08T22:44:53;5.40;;;3.10;;
55316;SDS011;41178;48.956;8.130;2023-03-08T22:49:55;5.63;;;2.80;;
55316;SDS011;41178;48.956;8.130;2023-03-08T22:54:57;4.60;;;2.60;;
55316;SDS011;41178;48.956;8.130;2023-03-08T22:59:58;3.30;;;2.90;;
55316;SDS011;41178;48.956;8.130;2023-03-08T23:05:00;5.50;;;2.80;;
55316;SDS011;41178;48.956;8.130;2023-03-08T23:10:02;3.93;;;3.17;;
55316;SDS011;41178;48.956;8.130;2023-03-08T23:15:04;3.50;;;3.20;;
55316;SDS011;41178;48.956;8.130;2023-03-08T23:20:07;6.50;;;3.13;;
55316;SDS011;41178;48.956;8.130;2023-03-08T23:25:10;4.67;;;2.77;;
55316;SDS011;41178;48.956;8.130;2023-03-08T23:30:12;4.70;;;2.77;;
55316;SDS011;41178;48.956;8.130;2023-03-08T23:35:15;9.73;;;3.90;;
55316;SDS011;41178;48.956;8.130;2023-03-08T23:40:17;5.47;;;3.03;;
55316;SDS011;41178;48.956;8.130;2023-03-08T23:45:19;2.97;;;2.37;;
55316;SDS011;41178;48.956;8.130;2023-03-08T23:50:21;2.80;;;2.00;;
55316;SDS011;41178;48.956;8.130;2023-03-08T23:55:23;2.00;;;1.90;;
